sensor_id;sensor_type;location;lat;lon;timestamp;P1;durP1;ratioP1;P2;durP2;ratioP2
8909;SDS011;4490;49.072;8.804;2023-05-23T00:00:35;56.73;;;36.90;;
8909;SDS011;4490;49.072;8.804;2023-05-23T00:03:02;60.73;;;36.83;;
8909;SDS011;4490;49.072;8.804;2023-05-23T00:05:28;59.80;;;37.37;;
8909;SDS011;4490;49.072;8.804;2023-05-23T00:07:54;65.87;;;38.50;;
8909;SDS011;4490;49.072;8.804;2023-05-23T00:10:20;68.93;;;40.73;;
8909;SDS011;4490;49.072;8.804;2023-05-23T00:12:46;62.97;;;38.17;;
8909;SDS011;4490;49.072;8.804;2023-05-23T00:15:12;64.10;;;38.87;;
8909;SDS011;4490;49.072;8.804;2023-05-23T00:17:38;67.63;;;41.50;;
8909;SDS011;4490;49.072;8.804;2023-05-23T00:20:04;70.30;;;43.63;;
8909;SDS011;4490;49.072;8.804;2023-05-23T00:22:35;75.87;;;41.93;;
8909;SDS011;4490;49.072;8.804;2023-05-23T00:25:04;78.47;;;45.60;;
8909;SDS011;4490;49.072;8.804;2023-05-23T00:27:30;72.50;;;42.77;;
8909;SDS011;4490;49.072;8.804;2023-05-23T00:29:55;72.33;;;44.27;;
8909;SDS011;4490;49.072;8.804;2023-05-23T00:32:21;74.20;;;43.53;;
8909;SDS011;4490;49.072;8.804;2023-05-23T00:34:47;73.90;;;43.23;;
8909;SDS011;4490;49.072;8.804;2023-05-23T00:37:12;72.20;;;43.43;;
8909;SDS011;4490;49.072;8.804;2023-05-23T00:39:39;80.40;;;43.87;;
8909;SDS011;4490;49.072;8.804;2023-05-23T00:42:04;69.17;;;42.77;;
8909;SDS011;4490;49.072;8.804;2023-05-23T00:44:30;76.57;;;44.33;;
8909;SDS011;4490;49.072;8.804;2023-05-23T00:46:56;79.33;;;46.00;;
8909;SDS011;4490;49.072;8.804;2023-05-23T00:49:22;74.43;;;45.90;;
8909;SDS011;4490;49.072;8.804;2023-05-23T00:51:48;80.53;;;45.77;;
8909;SDS011;4490;49.072;8.804;2023-05-23T00:54:25;77.33;;;47.03;;
8909;SDS011;4490;49.072;8.804;2023-05-23T00:56:55;82.70;;;49.20;;
8909;SDS011;4490;49.072;8.804;2023-05-23T00:59:21;82.73;;;50.30;;
8909;SDS011;4490;49.072;8.804;2023-05-23T01:01:49;80.47;;;48.43;;
8909;SDS011;4490;49.072;8.804;2023-05-23T01:04:16;82.97;;;49.10;;
8909;SDS011;4490;49.072;8.804;2023-05-23T01:06:43;86.00;;;49.23;;
8909;SDS011;4490;49.072;8.804;2023-05-23T01:09:10;86.03;;;49.73;;
8909;SDS011;4490;49.072;8.804;2023-05-23T01:11:40;85.60;;;50.53;;
8909;SDS011;4490;49.072;8.804;2023-05-23T01:14:27;87.83;;;52.77;;
8909;SDS011;4490;49.072;8.804;2023-05-23T01:18:22;84.00;;;48.87;;
8909;SDS011;4490;49.072;8.804;2023-05-23T01:20:18;94.60;;;50.77;;
8909;SDS011;4490;49.072;8.804;2023-05-23T01:25:43;84.40;;;49.93;;
8909;SDS011;4490;49.072;8.804;2023-05-23T01:28:23;87.53;;;52.10;;
8909;SDS011;4490;49.072;8.804;2023-05-23T01:30:56;94.70;;;54.47;;
8909;SDS011;4490;49.072;8.804;2023-05-23T01:33:24;88.53;;;52.83;;
8909;SDS011;4490;49.072;8.804;2023-05-23T01:35:52;90.27;;;51.73;;
8909;SDS011;4490;49.072;8.804;2023-05-23T01:38:20;88.47;;;52.70;;
8909;SDS011;4490;49.072;8.804;2023-05-23T01:40:46;88.47;;;50.97;;
8909;SDS011;4490;49.072;8.804;2023-05-23T01:43:11;91.57;;;51.27;;
8909;SDS011;4490;49.072;8.804;2023-05-23T01:45:37;86.33;;;51.13;;
8909;SDS011;4490;49.072;8.804;2023-05-23T01:48:03;88.40;;;51.10;;
8909;SDS011;4490;49.072;8.804;2023-05-23T01:50:30;87.40;;;53.10;;
8909;SDS011;4490;49.072;8.804;2023-05-23T01:52:56;88.67;;;51.60;;
8909;SDS011;4490;49.072;8.804;2023-05-23T01:55:23;88.70;;;52.13;;
8909;SDS011;4490;49.072;8.804;2023-05-23T01:57:50;99.13;;;54.80;;
8909;SDS011;4490;49.072;8.804;2023-05-23T02:00:17;92.00;;;53.40;;
8909;SDS011;4490;49.072;8.804;2023-05-23T02:02:43;89.57;;;54.47;;
8909;SDS011;4490;49.072;8.804;2023-05-23T02:05:10;94.93;;;54.20;;
8909;SDS011;4490;49.072;8.804;2023-05-23T02:07:35;94.70;;;54.20;;
8909;SDS011;4490;49.072;8.804;2023-05-23T02:10:02;93.20;;;54.53;;
8909;SDS011;4490;49.072;8.804;2023-05-23T02:12:28;101.13;;;56.33;;
8909;SDS011;4490;49.072;8.804;2023-05-23T02:14:54;95.00;;;54.10;;
8909;SDS011;4490;49.072;8.804;2023-05-23T02:17:19;92.83;;;54.20;;
8909;SDS011;4490;49.072;8.804;2023-05-23T02:19:46;89.13;;;52.97;;
8909;SDS011;4490;49.072;8.804;2023-05-23T02:22:12;88.13;;;52.40;;
8909;SDS011;4490;49.072;8.804;2023-05-23T02:24:38;88.97;;;52.87;;
8909;SDS011;4490;49.072;8.804;2023-05-23T02:27:04;89.50;;;52.17;;
8909;SDS011;4490;49.072;8.804;2023-05-23T02:29:29;88.33;;;52.47;;
8909;SDS011;4490;49.072;8.804;2023-05-23T02:31:55;92.10;;;52.27;;
8909;SDS011;4490;49.072;8.804;2023-05-23T02:34:21;87.13;;;52.23;;
8909;SDS011;4490;49.072;8.804;2023-05-23T02:36:46;79.07;;;50.70;;
8909;SDS011;4490;49.072;8.804;2023-05-23T02:39:12;81.63;;;49.23;;
8909;SDS011;4490;49.072;8.804;2023-05-23T02:41:37;82.63;;;51.00;;
8909;SDS011;4490;49.072;8.804;2023-05-23T02:44:04;81.00;;;50.37;;
8909;SDS011;4490;49.072;8.804;2023-05-23T02:46:30;88.87;;;51.07;;
8909;SDS011;4490;49.072;8.804;2023-05-23T02:48:55;84.93;;;51.07;;
8909;SDS011;4490;49.072;8.804;2023-05-23T02:51:21;81.03;;;49.73;;
8909;SDS011;4490;49.072;8.804;2023-05-23T02:53:46;80.83;;;49.33;;
8909;SDS011;4490;49.072;8.804;2023-05-23T02:56:12;76.17;;;49.90;;
8909;SDS011;4490;49.072;8.804;2023-05-23T02:58:40;76.17;;;48.50;;
8909;SDS011;4490;49.072;8.804;2023-05-23T03:01:05;76.67;;;49.33;;
8909;SDS011;4490;49.072;8.804;2023-05-23T03:03:32;77.90;;;50.90;;
8909;SDS011;4490;49.072;8.804;2023-05-23T03:05:58;76.80;;;49.50;;
8909;SDS011;4490;49.072;8.804;2023-05-23T03:08:24;77.47;;;48.83;;
8909;SDS011;4490;49.072;8.804;2023-05-23T03:10:50;81.93;;;51.57;;
8909;SDS011;4490;49.072;8.804;2023-05-23T03:13:16;82.97;;;50.90;;
8909;SDS011;4490;49.072;8.804;2023-05-23T03:15:42;72.97;;;48.73;;
8909;SDS011;4490;49.072;8.804;2023-05-23T03:18:08;81.50;;;50.20;;
8909;SDS011;4490;49.072;8.804;2023-05-23T03:20:33;77.03;;;49.23;;
8909;SDS011;4490;49.072;8.804;2023-05-23T03:22:59;74.13;;;49.30;;
8909;SDS011;4490;49.072;8.804;2023-05-23T03:25:24;76.53;;;49.73;;
8909;SDS011;4490;49.072;8.804;2023-05-23T03:27:50;76.60;;;47.53;;
8909;SDS011;4490;49.072;8.804;2023-05-23T03:30:16;79.33;;;51.03;;
8909;SDS011;4490;49.072;8.804;2023-05-23T03:32:42;69.50;;;48.97;;
8909;SDS011;4490;49.072;8.804;2023-05-23T03:35:07;78.00;;;49.23;;
8909;SDS011;4490;49.072;8.804;2023-05-23T03:37:33;74.83;;;48.53;;
8909;SDS011;4490;49.072;8.804;2023-05-23T03:39:59;76.83;;;48.47;;
8909;SDS011;4490;49.072;8.804;2023-05-23T03:42:25;67.57;;;45.53;;
8909;SDS011;4490;49.072;8.804;2023-05-23T03:44:51;70.43;;;48.83;;
8909;SDS011;4490;49.072;8.804;2023-05-23T03:47:17;74.73;;;46.33;;
8909;SDS011;4490;49.072;8.804;2023-05-23T03:49:42;70.60;;;48.13;;
8909;SDS011;4490;49.072;8.804;2023-05-23T03:52:09;73.07;;;48.53;;
8909;SDS011;4490;49.072;8.804;2023-05-23T03:54:35;72.10;;;48.47;;
8909;SDS011;4490;49.072;8.804;2023-05-23T03:57:01;65.67;;;47.63;;
8909;SDS011;4490;49.072;8.804;2023-05-23T03:59:27;74.13;;;50.17;;
8909;SDS011;4490;49.072;8.804;2023-05-23T04:01:52;72.27;;;47.63;;
8909;SDS011;4490;49.072;8.804;2023-05-23T04:04:19;69.00;;;46.50;;
8909;SDS011;4490;49.072;8.804;2023-05-23T04:06:45;68.57;;;47.90;;
8909;SDS011;4490;49.072;8.804;2023-05-23T04:09:11;68.63;;;47.53;;
8909;SDS011;4490;49.072;8.804;2023-05-23T04:11:38;67.20;;;46.07;;
8909;SDS011;4490;49.072;8.804;2023-05-23T04:14:03;72.10;;;46.90;;
8909;SDS011;4490;49.072;8.804;2023-05-23T04:16:29;67.53;;;48.53;;
8909;SDS011;4490;49.072;8.804;2023-05-23T04:18:57;69.53;;;48.87;;
8909;SDS011;4490;49.072;8.804;2023-05-23T04:21:23;69.07;;;47.83;;
8909;SDS011;4490;49.072;8.804;2023-05-23T04:23:49;74.57;;;49.53;;
8909;SDS011;4490;49.072;8.804;2023-05-23T04:26:15;67.37;;;48.47;;
8909;SDS011;4490;49.072;8.804;2023-05-23T04:28:40;65.23;;;47.50;;
8909;SDS011;4490;49.072;8.804;2023-05-23T04:31:10;68.70;;;50.70;;
8909;SDS011;4490;49.072;8.804;2023-05-23T04:33:36;70.37;;;51.57;;
8909;SDS011;4490;49.072;8.804;2023-05-23T04:36:02;71.10;;;52.07;;
8909;SDS011;4490;49.072;8.804;2023-05-23T04:38:28;68.00;;;50.33;;
8909;SDS011;4490;49.072;8.804;2023-05-23T04:40:53;69.13;;;50.37;;
8909;SDS011;4490;49.072;8.804;2023-05-23T04:43:19;65.70;;;50.53;;
8909;SDS011;4490;49.072;8.804;2023-05-23T04:45:46;68.73;;;50.37;;
8909;SDS011;4490;49.072;8.804;2023-05-23T04:48:13;67.17;;;49.87;;
8909;SDS011;4490;49.072;8.804;2023-05-23T04:50:41;67.57;;;49.17;;
8909;SDS011;4490;49.072;8.804;2023-05-23T04:53:06;64.97;;;50.60;;
8909;SDS011;4490;49.072;8.804;2023-05-23T04:55:32;67.13;;;49.47;;
8909;SDS011;4490;49.072;8.804;2023-05-23T04:57:58;61.73;;;48.47;;
8909;SDS011;4490;49.072;8.804;2023-05-23T05:00:24;67.87;;;50.67;;
8909;SDS011;4490;49.072;8.804;2023-05-23T05:02:50;59.97;;;48.00;;
8909;SDS011;4490;49.072;8.804;2023-05-23T05:05:16;58.80;;;47.60;;
8909;SDS011;4490;49.072;8.804;2023-05-23T05:07:42;64.17;;;48.37;;
8909;SDS011;4490;49.072;8.804;2023-05-23T05:10:08;58.63;;;46.90;;
8909;SDS011;4490;49.072;8.804;2023-05-23T05:12:41;59.80;;;46.93;;
8909;SDS011;4490;49.072;8.804;2023-05-23T05:15:11;56.57;;;46.73;;
8909;SDS011;4490;49.072;8.804;2023-05-23T05:17:37;57.90;;;47.73;;
8909;SDS011;4490;49.072;8.804;2023-05-23T05:20:04;58.53;;;46.73;;
8909;SDS011;4490;49.072;8.804;2023-05-23T05:22:35;57.33;;;45.10;;
8909;SDS011;4490;49.072;8.804;2023-05-23T05:25:04;57.03;;;45.70;;
8909;SDS011;4490;49.072;8.804;2023-05-23T05:27:31;56.77;;;45.33;;
8909;SDS011;4490;49.072;8.804;2023-05-23T05:29:57;56.80;;;47.00;;
8909;SDS011;4490;49.072;8.804;2023-05-23T05:32:28;56.67;;;45.47;;
8909;SDS011;4490;49.072;8.804;2023-05-23T05:34:55;58.37;;;45.97;;
8909;SDS011;4490;49.072;8.804;2023-05-23T05:37:20;53.00;;;44.00;;
8909;SDS011;4490;49.072;8.804;2023-05-23T05:39:46;54.23;;;43.43;;
8909;SDS011;4490;49.072;8.804;2023-05-23T05:42:12;51.20;;;42.33;;
8909;SDS011;4490;49.072;8.804;2023-05-23T05:44:37;47.57;;;39.97;;
8909;SDS011;4490;49.072;8.804;2023-05-23T05:47:03;50.60;;;40.53;;
8909;SDS011;4490;49.072;8.804;2023-05-23T05:49:29;48.07;;;39.70;;
8909;SDS011;4490;49.072;8.804;2023-05-23T05:51:54;44.03;;;36.03;;
8909;SDS011;4490;49.072;8.804;2023-05-23T05:54:20;43.27;;;35.67;;
8909;SDS011;4490;49.072;8.804;2023-05-23T05:56:46;41.10;;;35.33;;
8909;SDS011;4490;49.072;8.804;2023-05-23T05:59:12;41.47;;;35.47;;
8909;SDS011;4490;49.072;8.804;2023-05-23T06:01:37;45.67;;;37.93;;
8909;SDS011;4490;49.072;8.804;2023-05-23T06:04:03;45.93;;;38.87;;
8909;SDS011;4490;49.072;8.804;2023-05-23T06:06:28;44.77;;;38.40;;
8909;SDS011;4490;49.072;8.804;2023-05-23T06:08:55;45.30;;;39.03;;
8909;SDS011;4490;49.072;8.804;2023-05-23T06:11:21;42.90;;;38.20;;
8909;SDS011;4490;49.072;8.804;2023-05-23T06:13:46;45.67;;;38.73;;
8909;SDS011;4490;49.072;8.804;2023-05-23T06:16:12;44.83;;;37.87;;
8909;SDS011;4490;49.072;8.804;2023-05-23T06:18:39;47.13;;;38.67;;
8909;SDS011;4490;49.072;8.804;2023-05-23T06:21:05;43.07;;;36.50;;
8909;SDS011;4490;49.072;8.804;2023-05-23T06:23:30;43.03;;;36.57;;
8909;SDS011;4490;49.072;8.804;2023-05-23T06:25:57;42.60;;;36.80;;
8909;SDS011;4490;49.072;8.804;2023-05-23T06:28:23;37.30;;;29.83;;
8909;SDS011;4490;49.072;8.804;2023-05-23T06:30:49;30.87;;;27.67;;
8909;SDS011;4490;49.072;8.804;2023-05-23T06:33:16;30.27;;;25.93;;
8909;SDS011;4490;49.072;8.804;2023-05-23T06:35:41;28.23;;;25.23;;
8909;SDS011;4490;49.072;8.804;2023-05-23T06:38:07;28.70;;;25.73;;
8909;SDS011;4490;49.072;8.804;2023-05-23T06:40:33;27.90;;;25.00;;
8909;SDS011;4490;49.072;8.804;2023-05-23T06:42:58;27.73;;;24.73;;
8909;SDS011;4490;49.072;8.804;2023-05-23T06:45:24;27.90;;;24.90;;
8909;SDS011;4490;49.072;8.804;2023-05-23T06:47:50;28.20;;;24.37;;
8909;SDS011;4490;49.072;8.804;2023-05-23T06:50:16;26.77;;;23.83;;
8909;SDS011;4490;49.072;8.804;2023-05-23T06:52:44;26.43;;;23.63;;
8909;SDS011;4490;49.072;8.804;2023-05-23T06:55:10;29.30;;;23.17;;
8909;SDS011;4490;49.072;8.804;2023-05-23T06:57:41;27.40;;;24.50;;
8909;SDS011;4490;49.072;8.804;2023-05-23T07:00:07;25.63;;;22.93;;
8909;SDS011;4490;49.072;8.804;2023-05-23T07:02:34;27.53;;;24.23;;
8909;SDS011;4490;49.072;8.804;2023-05-23T07:04:59;27.47;;;24.47;;
8909;SDS011;4490;49.072;8.804;2023-05-23T07:07:25;25.00;;;22.37;;
8909;SDS011;4490;49.072;8.804;2023-05-23T07:09:51;25.63;;;22.93;;
8909;SDS011;4490;49.072;8.804;2023-05-23T07:12:16;26.00;;;23.40;;
8909;SDS011;4490;49.072;8.804;2023-05-23T07:14:42;23.13;;;20.33;;
8909;SDS011;4490;49.072;8.804;2023-05-23T07:17:07;23.07;;;20.77;;
8909;SDS011;4490;49.072;8.804;2023-05-23T07:19:33;23.87;;;21.40;;
8909;SDS011;4490;49.072;8.804;2023-05-23T07:21:58;23.03;;;20.70;;
8909;SDS011;4490;49.072;8.804;2023-05-23T07:24:24;24.17;;;21.50;;
8909;SDS011;4490;49.072;8.804;2023-05-23T07:26:50;22.60;;;20.30;;
8909;SDS011;4490;49.072;8.804;2023-05-23T07:29:15;23.97;;;21.53;;
8909;SDS011;4490;49.072;8.804;2023-05-23T07:31:41;22.63;;;20.37;;
8909;SDS011;4490;49.072;8.804;2023-05-23T07:34:06;23.07;;;20.67;;
8909;SDS011;4490;49.072;8.804;2023-05-23T07:36:32;23.97;;;21.57;;
8909;SDS011;4490;49.072;8.804;2023-05-23T07:38:59;22.60;;;19.93;;
8909;SDS011;4490;49.072;8.804;2023-05-23T07:41:25;25.93;;;23.13;;
8909;SDS011;4490;49.072;8.804;2023-05-23T07:43:51;25.07;;;22.40;;
8909;SDS011;4490;49.072;8.804;2023-05-23T07:46:17;25.33;;;22.43;;
8909;SDS011;4490;49.072;8.804;2023-05-23T07:48:42;22.47;;;20.10;;
8909;SDS011;4490;49.072;8.804;2023-05-23T07:51:08;21.83;;;17.57;;
8909;SDS011;4490;49.072;8.804;2023-05-23T07:53:33;19.87;;;17.83;;
8909;SDS011;4490;49.072;8.804;2023-05-23T07:56:03;19.40;;;17.27;;
8909;SDS011;4490;49.072;8.804;2023-05-23T07:58:32;20.00;;;17.90;;
8909;SDS011;4490;49.072;8.804;2023-05-23T08:00:57;19.33;;;17.43;;
8909;SDS011;4490;49.072;8.804;2023-05-23T08:03:23;19.33;;;17.30;;
8909;SDS011;4490;49.072;8.804;2023-05-23T08:05:49;18.70;;;16.80;;
8909;SDS011;4490;49.072;8.804;2023-05-23T08:08:15;18.60;;;16.70;;
8909;SDS011;4490;49.072;8.804;2023-05-23T08:10:41;18.03;;;16.33;;
8909;SDS011;4490;49.072;8.804;2023-05-23T08:13:08;16.43;;;14.70;;
8909;SDS011;4490;49.072;8.804;2023-05-23T08:15:33;14.30;;;12.77;;
8909;SDS011;4490;49.072;8.804;2023-05-23T08:17:59;13.73;;;12.40;;
8909;SDS011;4490;49.072;8.804;2023-05-23T08:20:25;14.13;;;12.70;;
8909;SDS011;4490;49.072;8.804;2023-05-23T08:22:58;13.93;;;11.90;;
8909;SDS011;4490;49.072;8.804;2023-05-23T08:25:25;14.15;;;11.57;;
8909;SDS011;4490;49.072;8.804;2023-05-23T08:27:55;11.30;;;10.25;;
8909;SDS011;4490;49.072;8.804;2023-05-23T08:30:22;11.82;;;10.73;;
8909;SDS011;4490;49.072;8.804;2023-05-23T08:32:49;11.80;;;10.60;;
8909;SDS011;4490;49.072;8.804;2023-05-23T08:35:15;11.88;;;10.40;;
8909;SDS011;4490;49.072;8.804;2023-05-23T08:37:41;10.60;;;9.60;;
8909;SDS011;4490;49.072;8.804;2023-05-23T08:40:07;10.50;;;9.60;;
8909;SDS011;4490;49.072;8.804;2023-05-23T08:42:38;11.10;;;10.00;;
8909;SDS011;4490;49.072;8.804;2023-05-23T08:45:04;11.07;;;10.07;;
8909;SDS011;4490;49.072;8.804;2023-05-23T08:47:30;10.40;;;9.07;;
8909;SDS011;4490;49.072;8.804;2023-05-23T08:50:01;9.85;;;8.85;;
8909;SDS011;4490;49.072;8.804;2023-05-23T08:52:31;10.35;;;9.43;;
8909;SDS011;4490;49.072;8.804;2023-05-23T08:54:59;9.82;;;8.82;;
8909;SDS011;4490;49.072;8.804;2023-05-23T08:57:44;9.50;;;8.70;;
8909;SDS011;4490;49.072;8.804;2023-05-23T09:00:13;9.45;;;8.65;;
8909;SDS011;4490;49.072;8.804;2023-05-23T09:02:43;11.60;;;8.50;;
8909;SDS011;4490;49.072;8.804;2023-05-23T09:05:09;9.27;;;8.48;;
8909;SDS011;4490;49.072;8.804;2023-05-23T09:07:35;10.02;;;9.02;;
8909;SDS011;4490;49.072;8.804;2023-05-23T09:10:02;10.90;;;9.80;;
8909;SDS011;4490;49.072;8.804;2023-05-23T09:12:29;11.98;;;10.90;;
8909;SDS011;4490;49.072;8.804;2023-05-23T09:14:55;12.35;;;11.25;;
8909;SDS011;4490;49.072;8.804;2023-05-23T09:17:21;13.07;;;11.88;;
8909;SDS011;4490;49.072;8.804;2023-05-23T09:19:47;13.52;;;12.23;;
8909;SDS011;4490;49.072;8.804;2023-05-23T09:22:13;13.27;;;12.05;;
8909;SDS011;4490;49.072;8.804;2023-05-23T09:24:39;14.07;;;12.38;;
8909;SDS011;4490;49.072;8.804;2023-05-23T09:27:05;12.55;;;11.25;;
8909;SDS011;4490;49.072;8.804;2023-05-23T09:29:32;11.88;;;10.77;;
8909;SDS011;4490;49.072;8.804;2023-05-23T09:32:17;11.30;;;10.30;;
8909;SDS011;4490;49.072;8.804;2023-05-23T09:34:57;10.80;;;9.73;;
8909;SDS011;4490;49.072;8.804;2023-05-23T09:37:38;10.85;;;9.88;;
8909;SDS011;4490;49.072;8.804;2023-05-23T09:40:08;10.98;;;9.95;;
8909;SDS011;4490;49.072;8.804;2023-05-23T09:42:35;11.57;;;10.43;;
8909;SDS011;4490;49.072;8.804;2023-05-23T09:45:05;11.75;;;10.65;;
8909;SDS011;4490;49.072;8.804;2023-05-23T09:47:31;12.15;;;10.95;;
8909;SDS011;4490;49.072;8.804;2023-05-23T09:49:57;11.57;;;10.52;;
8909;SDS011;4490;49.072;8.804;2023-05-23T09:52:23;11.68;;;10.48;;
8909;SDS011;4490;49.072;8.804;2023-05-23T09:54:48;13.88;;;12.55;;
8909;SDS011;4490;49.072;8.804;2023-05-23T09:57:15;14.48;;;13.07;;
8909;SDS011;4490;49.072;8.804;2023-05-23T09:59:44;14.80;;;13.15;;
8909;SDS011;4490;49.072;8.804;2023-05-23T10:02:16;15.15;;;13.23;;
8909;SDS011;4490;49.072;8.804;2023-05-23T10:05:29;13.43;;;12.02;;
8909;SDS011;4490;49.072;8.804;2023-05-23T10:08:00;13.13;;;11.80;;
8909;SDS011;4490;49.072;8.804;2023-05-23T10:10:31;12.60;;;11.38;;
8909;SDS011;4490;49.072;8.804;2023-05-23T10:13:01;11.93;;;10.75;;
8909;SDS011;4490;49.072;8.804;2023-05-23T10:15:29;10.93;;;9.93;;
8909;SDS011;4490;49.072;8.804;2023-05-23T10:18:04;10.57;;;9.57;;
8909;SDS011;4490;49.072;8.804;2023-05-23T10:20:48;11.00;;;9.95;;
8909;SDS011;4490;49.072;8.804;2023-05-23T10:23:18;10.27;;;9.35;;
8909;SDS011;4490;49.072;8.804;2023-05-23T10:25:44;9.73;;;8.77;;
8909;SDS011;4490;49.072;8.804;2023-05-23T10:28:10;9.50;;;8.50;;
8909;SDS011;4490;49.072;8.804;2023-05-23T10:30:37;9.27;;;8.38;;
8909;SDS011;4490;49.072;8.804;2023-05-23T10:33:04;8.00;;;7.35;;
8909;SDS011;4490;49.072;8.804;2023-05-23T10:36:21;9.02;;;8.23;;
8909;SDS011;4490;49.072;8.804;2023-05-23T10:41:17;9.38;;;8.52;;
8909;SDS011;4490;49.072;8.804;2023-05-23T10:44:06;9.07;;;8.23;;
8909;SDS011;4490;49.072;8.804;2023-05-23T10:46:53;9.93;;;7.20;;
8909;SDS011;4490;49.072;8.804;2023-05-23T10:49:19;8.57;;;7.88;;
8909;SDS011;4490;49.072;8.804;2023-05-23T10:51:49;8.50;;;7.70;;
8909;SDS011;4490;49.072;8.804;2023-05-23T10:54:16;9.80;;;8.93;;
8909;SDS011;4490;49.072;8.804;2023-05-23T10:56:44;8.82;;;8.02;;
8909;SDS011;4490;49.072;8.804;2023-05-23T10:59:18;9.20;;;8.40;;
8909;SDS011;4490;49.072;8.804;2023-05-23T11:01:48;8.13;;;7.43;;
8909;SDS011;4490;49.072;8.804;2023-05-23T11:04:23;9.30;;;8.40;;
8909;SDS011;4490;49.072;8.804;2023-05-23T11:06:50;7.72;;;7.00;;
8909;SDS011;4490;49.072;8.804;2023-05-23T11:09:17;8.40;;;7.60;;
8909;SDS011;4490;49.072;8.804;2023-05-23T11:11:51;7.63;;;7.03;;
8909;SDS011;4490;49.072;8.804;2023-05-23T11:17:16;9.23;;;8.07;;
8909;SDS011;4490;49.072;8.804;2023-05-23T11:20:03;8.13;;;7.43;;
8909;SDS011;4490;49.072;8.804;2023-05-23T11:22:52;7.65;;;6.80;;
8909;SDS011;4490;49.072;8.804;2023-05-23T11:25:19;7.53;;;6.82;;
8909;SDS011;4490;49.072;8.804;2023-05-23T11:27:45;7.85;;;7.15;;
8909;SDS011;4490;49.072;8.804;2023-05-23T11:30:13;7.22;;;6.63;;
8909;SDS011;4490;49.072;8.804;2023-05-23T11:32:39;6.68;;;6.15;;
8909;SDS011;4490;49.072;8.804;2023-05-23T11:35:06;6.20;;;5.70;;
8909;SDS011;4490;49.072;8.804;2023-05-23T11:37:33;7.57;;;6.88;;
8909;SDS011;4490;49.072;8.804;2023-05-23T11:40:24;6.70;;;6.10;;
8909;SDS011;4490;49.072;8.804;2023-05-23T11:43:04;6.85;;;6.18;;
8909;SDS011;4490;49.072;8.804;2023-05-23T11:45:31;6.78;;;6.22;;
8909;SDS011;4490;49.072;8.804;2023-05-23T11:47:58;6.70;;;6.18;;
8909;SDS011;4490;49.072;8.804;2023-05-23T11:50:31;6.85;;;5.90;;
8909;SDS011;4490;49.072;8.804;2023-05-23T11:52:58;6.45;;;5.95;;
8909;SDS011;4490;49.072;8.804;2023-05-23T11:55:24;6.78;;;6.18;;
8909;SDS011;4490;49.072;8.804;2023-05-23T11:57:49;9.82;;;6.05;;
8909;SDS011;4490;49.072;8.804;2023-05-23T12:00:16;6.43;;;5.82;;
8909;SDS011;4490;49.072;8.804;2023-05-23T12:02:43;7.72;;;6.50;;
8909;SDS011;4490;49.072;8.804;2023-05-23T12:05:10;6.32;;;5.25;;
8909;SDS011;4490;49.072;8.804;2023-05-23T12:07:40;6.10;;;5.50;;
8909;SDS011;4490;49.072;8.804;2023-05-23T12:10:07;6.75;;;6.15;;
8909;SDS011;4490;49.072;8.804;2023-05-23T12:12:33;6.13;;;5.63;;
8909;SDS011;4490;49.072;8.804;2023-05-23T12:14:59;7.07;;;6.32;;
8909;SDS011;4490;49.072;8.804;2023-05-23T12:17:25;6.35;;;5.75;;
8909;SDS011;4490;49.072;8.804;2023-05-23T12:19:51;5.85;;;5.35;;
8909;SDS011;4490;49.072;8.804;2023-05-23T12:22:24;7.35;;;6.75;;
8909;SDS011;4490;49.072;8.804;2023-05-23T12:24:53;7.38;;;6.50;;
8909;SDS011;4490;49.072;8.804;2023-05-23T12:27:32;6.75;;;6.15;;
8909;SDS011;4490;49.072;8.804;2023-05-23T12:30:08;7.00;;;6.30;;
8909;SDS011;4490;49.072;8.804;2023-05-23T12:32:38;7.07;;;6.38;;
8909;SDS011;4490;49.072;8.804;2023-05-23T12:37:55;7.93;;;6.03;;
8909;SDS011;4490;49.072;8.804;2023-05-23T12:40:20;6.18;;;5.68;;
8909;SDS011;4490;49.072;8.804;2023-05-23T12:42:56;6.35;;;5.85;;
8909;SDS011;4490;49.072;8.804;2023-05-23T12:45:22;7.22;;;6.53;;
8909;SDS011;4490;49.072;8.804;2023-05-23T12:47:49;6.93;;;5.30;;
8909;SDS011;4490;49.072;8.804;2023-05-23T12:50:14;6.00;;;5.53;;
8909;SDS011;4490;49.072;8.804;2023-05-23T12:52:40;6.38;;;5.78;;
8909;SDS011;4490;49.072;8.804;2023-05-23T12:55:06;6.88;;;6.05;;
8909;SDS011;4490;49.072;8.804;2023-05-23T12:57:33;6.75;;;6.15;;
8909;SDS011;4490;49.072;8.804;2023-05-23T13:00:02;6.60;;;6.00;;
8909;SDS011;4490;49.072;8.804;2023-05-23T13:02:28;6.95;;;6.22;;
8909;SDS011;4490;49.072;8.804;2023-05-23T13:04:54;6.72;;;6.03;;
8909;SDS011;4490;49.072;8.804;2023-05-23T13:07:21;7.47;;;6.78;;
8909;SDS011;4490;49.072;8.804;2023-05-23T13:09:47;8.13;;;7.30;;
8909;SDS011;4490;49.072;8.804;2023-05-23T13:12:13;6.78;;;6.28;;
8909;SDS011;4490;49.072;8.804;2023-05-23T13:14:38;6.85;;;6.25;;
8909;SDS011;4490;49.072;8.804;2023-05-23T13:17:05;6.78;;;6.05;;
8909;SDS011;4490;49.072;8.804;2023-05-23T13:19:31;8.70;;;7.13;;
8909;SDS011;4490;49.072;8.804;2023-05-23T13:21:56;7.70;;;7.00;;
8909;SDS011;4490;49.072;8.804;2023-05-23T13:24:22;6.35;;;5.85;;
8909;SDS011;4490;49.072;8.804;2023-05-23T13:26:48;6.70;;;5.53;;
8909;SDS011;4490;49.072;8.804;2023-05-23T13:29:13;6.38;;;5.78;;
8909;SDS011;4490;49.072;8.804;2023-05-23T13:31:39;6.72;;;6.13;;
8909;SDS011;4490;49.072;8.804;2023-05-23T13:34:05;6.65;;;6.07;;
8909;SDS011;4490;49.072;8.804;2023-05-23T13:36:30;6.85;;;5.72;;
8909;SDS011;4490;49.072;8.804;2023-05-23T13:38:57;6.43;;;5.85;;
8909;SDS011;4490;49.072;8.804;2023-05-23T13:41:23;5.10;;;4.57;;
8909;SDS011;4490;49.072;8.804;2023-05-23T13:43:49;5.90;;;5.30;;
8909;SDS011;4490;49.072;8.804;2023-05-23T13:46:15;5.43;;;4.93;;
8909;SDS011;4490;49.072;8.804;2023-05-23T13:48:41;6.20;;;5.20;;
8909;SDS011;4490;49.072;8.804;2023-05-23T13:51:07;5.72;;;5.22;;
8909;SDS011;4490;49.072;8.804;2023-05-23T13:53:32;6.55;;;6.05;;
8909;SDS011;4490;49.072;8.804;2023-05-23T13:55:58;8.75;;;7.35;;
8909;SDS011;4490;49.072;8.804;2023-05-23T13:58:23;8.75;;;7.85;;
8909;SDS011;4490;49.072;8.804;2023-05-23T14:00:49;8.20;;;7.35;;
8909;SDS011;4490;49.072;8.804;2023-05-23T14:03:15;9.02;;;8.23;;
8909;SDS011;4490;49.072;8.804;2023-05-23T14:05:43;9.43;;;8.63;;
8909;SDS011;4490;49.072;8.804;2023-05-23T14:08:09;9.57;;;8.68;;
8909;SDS011;4490;49.072;8.804;2023-05-23T14:10:35;9.57;;;8.63;;
8909;SDS011;4490;49.072;8.804;2023-05-23T14:13:01;9.68;;;8.68;;
8909;SDS011;4490;49.072;8.804;2023-05-23T14:15:26;10.13;;;9.23;;
8909;SDS011;4490;49.072;8.804;2023-05-23T14:17:52;8.27;;;7.47;;
8909;SDS011;4490;49.072;8.804;2023-05-23T14:20:20;10.10;;;9.00;;
8909;SDS011;4490;49.072;8.804;2023-05-23T14:22:46;10.77;;;9.63;;
8909;SDS011;4490;49.072;8.804;2023-05-23T14:25:15;10.80;;;9.77;;
8909;SDS011;4490;49.072;8.804;2023-05-23T14:27:41;9.55;;;8.23;;
8909;SDS011;4490;49.072;8.804;2023-05-23T14:30:07;9.48;;;8.60;;
8909;SDS011;4490;49.072;8.804;2023-05-23T14:35:18;11.75;;;8.25;;
8909;SDS011;4490;49.072;8.804;2023-05-23T14:37:49;11.90;;;9.80;;
8909;SDS011;4490;49.072;8.804;2023-05-23T14:40:15;13.18;;;9.30;;
8909;SDS011;4490;49.072;8.804;2023-05-23T14:42:41;8.63;;;7.82;;
8909;SDS011;4490;49.072;8.804;2023-05-23T14:45:06;9.05;;;7.78;;
8909;SDS011;4490;49.072;8.804;2023-05-23T14:47:42;8.43;;;7.55;;
8909;SDS011;4490;49.072;8.804;2023-05-23T14:52:42;8.88;;;8.07;;
8909;SDS011;4490;49.072;8.804;2023-05-23T14:55:09;8.60;;;7.80;;
8909;SDS011;4490;49.072;8.804;2023-05-23T14:57:36;9.00;;;8.10;;
8909;SDS011;4490;49.072;8.804;2023-05-23T15:00:02;9.52;;;8.50;;
8909;SDS011;4490;49.072;8.804;2023-05-23T15:02:29;9.50;;;8.05;;
8909;SDS011;4490;49.072;8.804;2023-05-23T15:04:55;10.30;;;9.23;;
8909;SDS011;4490;49.072;8.804;2023-05-23T15:07:21;10.48;;;8.90;;
8909;SDS011;4490;49.072;8.804;2023-05-23T15:09:47;9.38;;;8.48;;
8909;SDS011;4490;49.072;8.804;2023-05-23T15:12:14;11.38;;;9.95;;
8909;SDS011;4490;49.072;8.804;2023-05-23T15:14:40;11.98;;;10.77;;